sensor_id;sensor_type;location;lat;lon;timestamp;P1;durP1;ratioP1;P2;durP2;ratioP2
4074;SDS011;2052;53.522;9.806;2023-04-03T00:00:21;9.60;;;3.57;;
4074;SDS011;2052;53.522;9.806;2023-04-03T00:02:47;7.13;;;2.90;;
4074;SDS011;2052;53.522;9.806;2023-04-03T00:05:14;6.50;;;4.00;;
4074;SDS011;2052;53.522;9.806;2023-04-03T00:07:42;10.13;;;3.47;;
4074;SDS011;2052;53.522;9.806;2023-04-03T00:10:08;4.97;;;3.00;;
4074;SDS011;2052;53.522;9.806;2023-04-03T00:12:35;8.00;;;3.10;;
4074;SDS011;2052;53.522;9.806;2023-04-03T00:15:02;8.57;;;2.87;;
4074;SDS011;2052;53.522;9.806;2023-04-03T00:17:29;8.03;;;3.77;;
4074;SDS011;2052;53.522;9.806;2023-04-03T00:19:55;6.47;;;3.23;;
4074;SDS011;2052;53.522;9.806;2023-04-03T00:22:22;5.20;;;3.17;;
4074;SDS011;2052;53.522;9.806;2023-04-03T00:24:50;7.70;;;3.13;;
4074;SDS011;2052;53.522;9.806;2023-04-03T00:27:16;8.93;;;3.57;;
4074;SDS011;2052;53.522;9.806;2023-04-03T00:29:43;6.53;;;2.90;;
4074;SDS011;2052;53.522;9.806;2023-04-03T00:32:09;11.80;;;2.90;;
4074;SDS011;2052;53.522;9.806;2023-04-03T00:34:36;7.80;;;3.10;;
4074;SDS011;2052;53.522;9.806;2023-04-03T00:37:02;8.33;;;3.33;;
4074;SDS011;2052;53.522;9.806;2023-04-03T00:39:29;11.00;;;3.87;;
4074;SDS011;2052;53.522;9.806;2023-04-03T00:41:57;10.50;;;3.67;;
4074;SDS011;2052;53.522;9.806;2023-04-03T00:47:26;7.33;;;2.77;;
4074;SDS011;2052;53.522;9.806;2023-04-03T00:49:53;8.87;;;3.50;;
4074;SDS011;2052;53.522;9.806;2023-04-03T00:52:21;8.50;;;3.30;;
4074;SDS011;2052;53.522;9.806;2023-04-03T00:54:50;9.37;;;3.60;;
4074;SDS011;2052;53.522;9.806;2023-04-03T00:57:19;5.50;;;3.70;;
4074;SDS011;2052;53.522;9.806;2023-04-03T00:59:49;8.43;;;3.50;;
4074;SDS011;2052;53.522;9.806;2023-04-03T01:02:18;4.73;;;2.47;;
4074;SDS011;2052;53.522;9.806;2023-04-03T01:04:44;20.97;;;3.60;;
4074;SDS011;2052;53.522;9.806;2023-04-03T01:07:12;9.00;;;3.47;;
4074;SDS011;2052;53.522;9.806;2023-04-03T01:09:41;6.60;;;4.83;;
4074;SDS011;2052;53.522;9.806;2023-04-03T01:12:15;7.67;;;3.33;;
4074;SDS011;2052;53.522;9.806;2023-04-03T01:14:43;6.40;;;3.03;;
4074;SDS011;2052;53.522;9.806;2023-04-03T01:17:27;11.40;;;3.33;;
4074;SDS011;2052;53.522;9.806;2023-04-03T01:19:57;11.17;;;4.30;;
4074;SDS011;2052;53.522;9.806;2023-04-03T01:22:46;5.70;;;3.10;;
4074;SDS011;2052;53.522;9.806;2023-04-03T01:25:17;9.47;;;3.63;;
4074;SDS011;2052;53.522;9.806;2023-04-03T01:27:43;8.63;;;3.97;;
4074;SDS011;2052;53.522;9.806;2023-04-03T01:30:12;11.50;;;3.20;;
4074;SDS011;2052;53.522;9.806;2023-04-03T01:32:41;11.33;;;3.17;;
4074;SDS011;2052;53.522;9.806;2023-04-03T01:35:08;5.97;;;3.20;;
4074;SDS011;2052;53.522;9.806;2023-04-03T01:37:35;5.87;;;3.10;;
4074;SDS011;2052;53.522;9.806;2023-04-03T01:40:02;6.67;;;2.90;;
4074;SDS011;2052;53.522;9.806;2023-04-03T01:42:28;6.27;;;2.70;;
4074;SDS011;2052;53.522;9.806;2023-04-03T01:44:55;6.27;;;3.13;;
4074;SDS011;2052;53.522;9.806;2023-04-03T01:47:22;9.27;;;2.80;;
4074;SDS011;2052;53.522;9.806;2023-04-03T01:49:50;7.20;;;3.13;;
4074;SDS011;2052;53.522;9.806;2023-04-03T01:52:16;6.00;;;2.90;;
4074;SDS011;2052;53.522;9.806;2023-04-03T01:54:43;13.87;;;4.10;;
4074;SDS011;2052;53.522;9.806;2023-04-03T01:57:10;6.40;;;3.50;;
4074;SDS011;2052;53.522;9.806;2023-04-03T01:59:36;9.63;;;3.40;;
4074;SDS011;2052;53.522;9.806;2023-04-03T02:02:03;12.13;;;4.17;;
4074;SDS011;2052;53.522;9.806;2023-04-03T02:04:29;7.27;;;3.13;;
4074;SDS011;2052;53.522;9.806;2023-04-03T02:06:57;7.20;;;3.40;;
4074;SDS011;2052;53.522;9.806;2023-04-03T02:09:24;7.83;;;3.17;;
4074;SDS011;2052;53.522;9.806;2023-04-03T02:11:51;6.63;;;3.43;;
4074;SDS011;2052;53.522;9.806;2023-04-03T02:14:17;7.60;;;3.80;;
4074;SDS011;2052;53.522;9.806;2023-04-03T02:16:45;11.70;;;4.03;;
4074;SDS011;2052;53.522;9.806;2023-04-03T02:19:11;14.27;;;5.43;;
4074;SDS011;2052;53.522;9.806;2023-04-03T02:21:38;11.80;;;4.47;;
4074;SDS011;2052;53.522;9.806;2023-04-03T02:24:06;10.47;;;3.90;;
4074;SDS011;2052;53.522;9.806;2023-04-03T02:26:33;10.43;;;3.70;;
4074;SDS011;2052;53.522;9.806;2023-04-03T02:28:59;7.33;;;3.47;;
4074;SDS011;2052;53.522;9.806;2023-04-03T02:31:26;9.13;;;3.40;;
4074;SDS011;2052;53.522;9.806;2023-04-03T02:33:52;9.43;;;4.03;;
4074;SDS011;2052;53.522;9.806;2023-04-03T02:36:19;11.00;;;3.97;;
4074;SDS011;2052;53.522;9.806;2023-04-03T02:38:45;7.80;;;3.70;;
4074;SDS011;2052;53.522;9.806;2023-04-03T02:41:14;10.80;;;4.20;;
4074;SDS011;2052;53.522;9.806;2023-04-03T02:43:41;7.40;;;3.63;;
4074;SDS011;2052;53.522;9.806;2023-04-03T02:46:07;10.17;;;4.23;;
4074;SDS011;2052;53.522;9.806;2023-04-03T02:48:34;11.13;;;3.60;;
4074;SDS011;2052;53.522;9.806;2023-04-03T02:51:01;10.93;;;3.60;;
4074;SDS011;2052;53.522;9.806;2023-04-03T02:53:27;11.13;;;3.90;;
4074;SDS011;2052;53.522;9.806;2023-04-03T02:55:54;11.40;;;3.90;;
4074;SDS011;2052;53.522;9.806;2023-04-03T02:58:22;10.03;;;4.00;;
4074;SDS011;2052;53.522;9.806;2023-04-03T03:00:48;7.50;;;3.43;;
4074;SDS011;2052;53.522;9.806;2023-04-03T03:03:15;6.20;;;3.60;;
4074;SDS011;2052;53.522;9.806;2023-04-03T03:05:41;6.60;;;3.57;;
4074;SDS011;2052;53.522;9.806;2023-04-03T03:08:08;7.87;;;4.33;;
4074;SDS011;2052;53.522;9.806;2023-04-03T03:10:35;17.63;;;4.70;;
4074;SDS011;2052;53.522;9.806;2023-04-03T03:13:01;5.67;;;3.60;;
4074;SDS011;2052;53.522;9.806;2023-04-03T03:15:29;11.20;;;4.30;;
4074;SDS011;2052;53.522;9.806;2023-04-03T03:17:56;10.27;;;3.87;;
4074;SDS011;2052;53.522;9.806;2023-04-03T03:20:22;10.43;;;3.77;;
4074;SDS011;2052;53.522;9.806;2023-04-03T03:22:49;11.57;;;4.10;;
4074;SDS011;2052;53.522;9.806;2023-04-03T03:25:15;14.33;;;3.93;;
4074;SDS011;2052;53.522;9.806;2023-04-03T03:27:42;8.37;;;3.73;;
4074;SDS011;2052;53.522;9.806;2023-04-03T03:30:08;8.67;;;3.77;;
4074;SDS011;2052;53.522;9.806;2023-04-03T03:32:37;8.33;;;4.37;;
4074;SDS011;2052;53.522;9.806;2023-04-03T03:35:04;4.70;;;3.50;;
4074;SDS011;2052;53.522;9.806;2023-04-03T03:37:30;7.20;;;3.83;;
4074;SDS011;2052;53.522;9.806;2023-04-03T03:39:57;5.73;;;3.90;;
4074;SDS011;2052;53.522;9.806;2023-04-03T03:42:23;8.43;;;3.60;;
4074;SDS011;2052;53.522;9.806;2023-04-03T03:44:50;12.27;;;3.87;;
4074;SDS011;2052;53.522;9.806;2023-04-03T03:47:17;6.47;;;3.63;;
4074;SDS011;2052;53.522;9.806;2023-04-03T03:49:45;7.83;;;4.10;;
4074;SDS011;2052;53.522;9.806;2023-04-03T03:52:11;6.37;;;3.83;;
4074;SDS011;2052;53.522;9.806;2023-04-03T03:54:38;5.33;;;3.77;;
4074;SDS011;2052;53.522;9.806;2023-04-03T03:57:04;5.93;;;3.40;;
4074;SDS011;2052;53.522;9.806;2023-04-03T03:59:31;7.93;;;3.80;;
4074;SDS011;2052;53.522;9.806;2023-04-03T04:01:57;8.60;;;3.53;;
4074;SDS011;2052;53.522;9.806;2023-04-03T04:04:24;9.47;;;4.77;;
4074;SDS011;2052;53.522;9.806;2023-04-03T04:06:52;10.13;;;3.47;;
4074;SDS011;2052;53.522;9.806;2023-04-03T04:09:18;9.87;;;4.70;;
4074;SDS011;2052;53.522;9.806;2023-04-03T04:11:45;10.80;;;3.90;;
4074;SDS011;2052;53.522;9.806;2023-04-03T04:14:11;8.13;;;3.70;;
4074;SDS011;2052;53.522;9.806;2023-04-03T04:16:38;10.67;;;4.17;;
4074;SDS011;2052;53.522;9.806;2023-04-03T04:19:05;7.93;;;4.33;;
4074;SDS011;2052;53.522;9.806;2023-04-03T04:21:31;12.10;;;4.07;;
4074;SDS011;2052;53.522;9.806;2023-04-03T04:23:59;6.60;;;3.83;;
4074;SDS011;2052;53.522;9.806;2023-04-03T04:26:26;10.20;;;4.33;;
4074;SDS011;2052;53.522;9.806;2023-04-03T04:28:52;12.70;;;4.97;;
4074;SDS011;2052;53.522;9.806;2023-04-03T04:31:19;12.80;;;4.00;;
4074;SDS011;2052;53.522;9.806;2023-04-03T04:33:45;9.67;;;3.53;;
4074;SDS011;2052;53.522;9.806;2023-04-03T04:36:12;9.27;;;4.97;;
4074;SDS011;2052;53.522;9.806;2023-04-03T04:38:39;8.97;;;3.37;;
4074;SDS011;2052;53.522;9.806;2023-04-03T04:41:07;11.60;;;4.17;;
4074;SDS011;2052;53.522;9.806;2023-04-03T04:43:34;15.00;;;4.90;;
4074;SDS011;2052;53.522;9.806;2023-04-03T04:46:01;7.30;;;4.03;;
4074;SDS011;2052;53.522;9.806;2023-04-03T04:48:28;7.67;;;3.70;;
4074;SDS011;2052;53.522;9.806;2023-04-03T04:50:55;13.97;;;5.10;;
4074;SDS011;2052;53.522;9.806;2023-04-03T04:53:21;8.30;;;4.10;;
4074;SDS011;2052;53.522;9.806;2023-04-03T04:55:48;9.00;;;4.17;;
4074;SDS011;2052;53.522;9.806;2023-04-03T04:58:16;12.30;;;4.53;;
4074;SDS011;2052;53.522;9.806;2023-04-03T05:00:42;6.83;;;3.50;;
4074;SDS011;2052;53.522;9.806;2023-04-03T05:03:09;9.10;;;3.87;;
4074;SDS011;2052;53.522;9.806;2023-04-03T05:05:36;14.43;;;3.90;;
4074;SDS011;2052;53.522;9.806;2023-04-03T05:08:03;14.53;;;4.80;;
4074;SDS011;2052;53.522;9.806;2023-04-03T05:10:29;11.03;;;5.50;;
4074;SDS011;2052;53.522;9.806;2023-04-03T05:12:56;9.63;;;4.30;;
4074;SDS011;2052;53.522;9.806;2023-04-03T05:15:25;17.00;;;4.60;;
4074;SDS011;2052;53.522;9.806;2023-04-03T05:17:51;9.03;;;3.93;;
4074;SDS011;2052;53.522;9.806;2023-04-03T05:20:18;17.10;;;4.83;;
4074;SDS011;2052;53.522;9.806;2023-04-03T05:22:44;8.07;;;5.53;;
4074;SDS011;2052;53.522;9.806;2023-04-03T05:25:11;9.50;;;6.27;;
4074;SDS011;2052;53.522;9.806;2023-04-03T05:27:37;14.90;;;5.70;;
4074;SDS011;2052;53.522;9.806;2023-04-03T05:30:04;13.23;;;5.90;;
4074;SDS011;2052;53.522;9.806;2023-04-03T05:32:33;9.03;;;4.60;;
4074;SDS011;2052;53.522;9.806;2023-04-03T05:34:59;12.03;;;4.40;;
4074;SDS011;2052;53.522;9.806;2023-04-03T05:37:26;5.53;;;3.20;;
4074;SDS011;2052;53.522;9.806;2023-04-03T05:39:52;6.77;;;3.90;;
4074;SDS011;2052;53.522;9.806;2023-04-03T05:42:19;10.23;;;4.10;;
4074;SDS011;2052;53.522;9.806;2023-04-03T05:44:46;6.47;;;3.10;;
4074;SDS011;2052;53.522;9.806;2023-04-03T05:47:13;6.73;;;3.40;;
4074;SDS011;2052;53.522;9.806;2023-04-03T05:49:42;5.77;;;3.10;;
4074;SDS011;2052;53.522;9.806;2023-04-03T05:52:11;6.20;;;3.40;;
4074;SDS011;2052;53.522;9.806;2023-04-03T05:54:44;6.30;;;3.43;;
4074;SDS011;2052;53.522;9.806;2023-04-03T05:57:13;6.20;;;3.23;;
4074;SDS011;2052;53.522;9.806;2023-04-03T05:59:39;6.47;;;3.40;;
4074;SDS011;2052;53.522;9.806;2023-04-03T06:02:06;7.47;;;3.40;;
4074;SDS011;2052;53.522;9.806;2023-04-03T06:04:32;8.00;;;3.33;;
4074;SDS011;2052;53.522;9.806;2023-04-03T06:07:00;7.13;;;3.17;;
4074;SDS011;2052;53.522;9.806;2023-04-03T06:09:28;8.73;;;3.30;;
4074;SDS011;2052;53.522;9.806;2023-04-03T06:11:55;5.07;;;3.57;;
4074;SDS011;2052;53.522;9.806;2023-04-03T06:14:23;8.20;;;3.60;;
4074;SDS011;2052;53.522;9.806;2023-04-03T06:16:50;7.83;;;3.57;;
4074;SDS011;2052;53.522;9.806;2023-04-03T06:19:17;8.33;;;3.40;;
4074;SDS011;2052;53.522;9.806;2023-04-03T06:21:44;8.53;;;3.70;;
4074;SDS011;2052;53.522;9.806;2023-04-03T06:24:14;12.90;;;3.37;;
4074;SDS011;2052;53.522;9.806;2023-04-03T06:26:41;5.30;;;3.40;;
4074;SDS011;2052;53.522;9.806;2023-04-03T06:29:08;6.10;;;3.27;;
4074;SDS011;2052;53.522;9.806;2023-04-03T06:31:34;5.90;;;3.60;;
4074;SDS011;2052;53.522;9.806;2023-04-03T06:34:01;5.80;;;3.40;;
4074;SDS011;2052;53.522;9.806;2023-04-03T06:36:28;4.83;;;3.27;;
4074;SDS011;2052;53.522;9.806;2023-04-03T06:38:55;6.33;;;3.13;;
4074;SDS011;2052;53.522;9.806;2023-04-03T06:41:23;7.67;;;3.13;;
4074;SDS011;2052;53.522;9.806;2023-04-03T06:43:51;5.50;;;3.37;;
4074;SDS011;2052;53.522;9.806;2023-04-03T06:46:18;9.30;;;3.70;;
4074;SDS011;2052;53.522;9.806;2023-04-03T06:48:46;9.27;;;3.80;;
4074;SDS011;2052;53.522;9.806;2023-04-03T06:51:17;7.90;;;3.13;;
4074;SDS011;2052;53.522;9.806;2023-04-03T06:53:45;10.33;;;3.27;;
4074;SDS011;2052;53.522;9.806;2023-04-03T06:56:20;4.40;;;2.77;;
4074;SDS011;2052;53.522;9.806;2023-04-03T06:58:48;5.70;;;2.60;;
4074;SDS011;2052;53.522;9.806;2023-04-03T07:01:16;8.00;;;3.03;;
4074;SDS011;2052;53.522;9.806;2023-04-03T07:03:44;8.93;;;3.70;;
4074;SDS011;2052;53.522;9.806;2023-04-03T07:06:11;6.43;;;2.80;;
4074;SDS011;2052;53.522;9.806;2023-04-03T07:08:39;7.37;;;3.27;;
4074;SDS011;2052;53.522;9.806;2023-04-03T07:11:05;7.00;;;2.90;;
4074;SDS011;2052;53.522;9.806;2023-04-03T07:13:32;3.70;;;2.43;;
4074;SDS011;2052;53.522;9.806;2023-04-03T07:16:00;4.37;;;2.10;;
4074;SDS011;2052;53.522;9.806;2023-04-03T07:18:29;4.30;;;2.50;;
4074;SDS011;2052;53.522;9.806;2023-04-03T07:20:55;5.93;;;2.83;;
4074;SDS011;2052;53.522;9.806;2023-04-03T07:23:22;5.90;;;2.00;;
4074;SDS011;2052;53.522;9.806;2023-04-03T07:25:49;4.87;;;2.23;;
4074;SDS011;2052;53.522;9.806;2023-04-03T07:28:17;4.70;;;2.40;;
4074;SDS011;2052;53.522;9.806;2023-04-03T07:30:45;4.33;;;2.17;;
4074;SDS011;2052;53.522;9.806;2023-04-03T07:33:14;7.47;;;2.47;;
4074;SDS011;2052;53.522;9.806;2023-04-03T07:35:42;2.70;;;1.80;;
4074;SDS011;2052;53.522;9.806;2023-04-03T07:38:09;3.60;;;2.00;;
4074;SDS011;2052;53.522;9.806;2023-04-03T07:40:36;4.80;;;1.73;;
4074;SDS011;2052;53.522;9.806;2023-04-03T07:43:04;8.47;;;1.80;;
4074;SDS011;2052;53.522;9.806;2023-04-03T07:45:31;6.17;;;2.00;;
4074;SDS011;2052;53.522;9.806;2023-04-03T07:47:58;6.07;;;1.87;;
4074;SDS011;2052;53.522;9.806;2023-04-03T07:50:26;4.37;;;1.80;;
4074;SDS011;2052;53.522;9.806;2023-04-03T07:52:53;3.63;;;1.87;;
4074;SDS011;2052;53.522;9.806;2023-04-03T07:55:22;4.70;;;1.60;;
4074;SDS011;2052;53.522;9.806;2023-04-03T07:57:49;3.00;;;1.90;;
4074;SDS011;2052;53.522;9.806;2023-04-03T08:00:16;3.73;;;1.70;;
4074;SDS011;2052;53.522;9.806;2023-04-03T08:02:44;3.37;;;1.40;;
4074;SDS011;2052;53.522;9.806;2023-04-03T08:05:15;3.40;;;1.60;;
4074;SDS011;2052;53.522;9.806;2023-04-03T08:07:43;5.03;;;1.53;;
4074;SDS011;2052;53.522;9.806;2023-04-03T08:10:10;3.37;;;1.60;;
4074;SDS011;2052;53.522;9.806;2023-04-03T08:12:36;4.80;;;1.80;;
4074;SDS011;2052;53.522;9.806;2023-04-03T08:15:04;4.90;;;1.50;;
4074;SDS011;2052;53.522;9.806;2023-04-03T08:17:32;1.60;;;1.30;;
4074;SDS011;2052;53.522;9.806;2023-04-03T08:19:58;5.63;;;1.50;;
4074;SDS011;2052;53.522;9.806;2023-04-03T08:22:25;2.30;;;2.10;;
4074;SDS011;2052;53.522;9.806;2023-04-03T08:24:53;3.43;;;1.70;;
4074;SDS011;2052;53.522;9.806;2023-04-03T08:27:20;4.30;;;1.47;;
4074;SDS011;2052;53.522;9.806;2023-04-03T08:29:46;3.67;;;1.50;;
4074;SDS011;2052;53.522;9.806;2023-04-03T08:32:13;4.73;;;1.30;;
4074;SDS011;2052;53.522;9.806;2023-04-03T08:34:40;2.00;;;1.33;;
4074;SDS011;2052;53.522;9.806;2023-04-03T08:37:06;3.97;;;1.30;;
4074;SDS011;2052;53.522;9.806;2023-04-03T08:39:34;2.60;;;1.20;;
4074;SDS011;2052;53.522;9.806;2023-04-03T08:42:05;3.33;;;1.57;;
4074;SDS011;2052;53.522;9.806;2023-04-03T08:44:38;2.90;;;1.53;;
4074;SDS011;2052;53.522;9.806;2023-04-03T08:47:10;3.30;;;1.43;;
4074;SDS011;2052;53.522;9.806;2023-04-03T08:49:40;4.80;;;2.03;;
4074;SDS011;2052;53.522;9.806;2023-04-03T08:52:12;1.50;;;1.27;;
4074;SDS011;2052;53.522;9.806;2023-04-03T08:54:42;6.73;;;1.80;;
4074;SDS011;2052;53.522;9.806;2023-04-03T08:57:17;1.50;;;1.37;;
4074;SDS011;2052;53.522;9.806;2023-04-03T08:59:44;1.90;;;1.70;;
4074;SDS011;2052;53.522;9.806;2023-04-03T09:02:18;2.00;;;1.30;;
4074;SDS011;2052;53.522;9.806;2023-04-03T09:04:51;4.10;;;1.80;;
4074;SDS011;2052;53.522;9.806;2023-04-03T09:07:19;2.00;;;1.40;;
4074;SDS011;2052;53.522;9.806;2023-04-03T09:09:48;2.20;;;1.63;;
4074;SDS011;2052;53.522;9.806;2023-04-03T09:12:18;8.37;;;2.17;;
4074;SDS011;2052;53.522;9.806;2023-04-03T09:14:51;3.10;;;1.80;;
4074;SDS011;2052;53.522;9.806;2023-04-03T09:17:26;9.00;;;2.10;;
4074;SDS011;2052;53.522;9.806;2023-04-03T09:20:02;3.33;;;2.00;;
4074;SDS011;2052;53.522;9.806;2023-04-03T09:22:38;4.20;;;1.60;;
4074;SDS011;2052;53.522;9.806;2023-04-03T09:25:08;4.77;;;1.80;;
4074;SDS011;2052;53.522;9.806;2023-04-03T09:27:39;3.30;;;2.00;;
4074;SDS011;2052;53.522;9.806;2023-04-03T09:30:11;4.63;;;1.77;;
4074;SDS011;2052;53.522;9.806;2023-04-03T09:32:40;6.93;;;2.17;;
4074;SDS011;2052;53.522;9.806;2023-04-03T09:35:13;1.67;;;1.30;;
4074;SDS011;2052;53.522;9.806;2023-04-03T09:37:43;2.97;;;2.10;;
4074;SDS011;2052;53.522;9.806;2023-04-03T09:40:32;4.37;;;1.60;;
4074;SDS011;2052;53.522;9.806;2023-04-03T09:43:04;1.63;;;1.40;;
4074;SDS011;2052;53.522;9.806;2023-04-03T09:45:46;3.37;;;1.80;;
4074;SDS011;2052;53.522;9.806;2023-04-03T09:48:15;1.83;;;1.40;;
4074;SDS011;2052;53.522;9.806;2023-04-03T09:50:57;2.13;;;1.43;;
4074;SDS011;2052;53.522;9.806;2023-04-03T09:53:26;1.43;;;1.20;;
4074;SDS011;2052;53.522;9.806;2023-04-03T09:55:58;1.80;;;1.23;;
4074;SDS011;2052;53.522;9.806;2023-04-03T09:58:27;7.10;;;1.43;;
4074;SDS011;2052;53.522;9.806;2023-04-03T10:00:56;4.10;;;1.53;;
4074;SDS011;2052;53.522;9.806;2023-04-03T10:03:25;3.33;;;1.70;;
4074;SDS011;2052;53.522;9.806;2023-04-03T10:05:54;2.50;;;1.43;;
4074;SDS011;2052;53.522;9.806;2023-04-03T10:08:24;2.10;;;1.43;;
4074;SDS011;2052;53.522;9.806;2023-04-03T10:11:06;2.40;;;1.50;;
4074;SDS011;2052;53.522;9.806;2023-04-03T10:13:50;2.50;;;1.30;;
4074;SDS011;2052;53.522;9.806;2023-04-03T10:16:18;1.77;;;1.20;;
4074;SDS011;2052;53.522;9.806;2023-04-03T10:18:48;4.93;;;1.47;;
4074;SDS011;2052;53.522;9.806;2023-04-03T10:21:20;2.77;;;1.33;;
4074;SDS011;2052;53.522;9.806;2023-04-03T10:23:57;1.30;;;1.20;;
4074;SDS011;2052;53.522;9.806;2023-04-03T10:26:29;1.30;;;1.20;;
4074;SDS011;2052;53.522;9.806;2023-04-03T10:29:02;8.80;;;1.60;;
4074;SDS011;2052;53.522;9.806;2023-04-03T10:31:36;3.80;;;1.50;;
4074;SDS011;2052;53.522;9.806;2023-04-03T10:34:09;5.13;;;1.57;;
4074;SDS011;2052;53.522;9.806;2023-04-03T10:36:42;1.63;;;1.40;;
4074;SDS011;2052;53.522;9.806;2023-04-03T10:39:17;2.17;;;1.00;;
4074;SDS011;2052;53.522;9.806;2023-04-03T10:41:55;2.57;;;1.10;;
4074;SDS011;2052;53.522;9.806;2023-04-03T10:44:29;2.30;;;1.23;;
4074;SDS011;2052;53.522;9.806;2023-04-03T10:47:02;3.50;;;1.23;;
4074;SDS011;2052;53.522;9.806;2023-04-03T10:49:35;3.37;;;1.30;;
4074;SDS011;2052;53.522;9.806;2023-04-03T10:52:12;4.40;;;1.90;;
4074;SDS011;2052;53.522;9.806;2023-04-03T10:54:43;2.50;;;1.60;;
4074;SDS011;2052;53.522;9.806;2023-04-03T10:57:12;1.70;;;1.20;;
4074;SDS011;2052;53.522;9.806;2023-04-03T10:59:41;3.00;;;1.60;;
4074;SDS011;2052;53.522;9.806;2023-04-03T11:02:12;2.13;;;1.80;;
4074;SDS011;2052;53.522;9.806;2023-04-03T11:04:44;2.03;;;1.80;;
4074;SDS011;2052;53.522;9.806;2023-04-03T11:07:14;2.77;;;2.00;;
4074;SDS011;2052;53.522;9.806;2023-04-03T11:09:42;2.93;;;1.60;;
4074;SDS011;2052;53.522;9.806;2023-04-03T11:12:11;3.50;;;1.50;;
4074;SDS011;2052;53.522;9.806;2023-04-03T11:14:42;3.40;;;1.40;;
4074;SDS011;2052;53.522;9.806;2023-04-03T11:17:11;4.23;;;1.47;;
4074;SDS011;2052;53.522;9.806;2023-04-03T11:19:47;1.50;;;1.30;;
4074;SDS011;2052;53.522;9.806;2023-04-03T11:22:20;7.43;;;1.80;;
4074;SDS011;2052;53.522;9.806;2023-04-03T11:24:51;1.83;;;1.50;;
4074;SDS011;2052;53.522;9.806;2023-04-03T11:27:23;4.50;;;1.60;;
4074;SDS011;2052;53.522;9.806;2023-04-03T11:29:52;6.10;;;1.77;;
4074;SDS011;2052;53.522;9.806;2023-04-03T11:32:28;3.10;;;1.57;;
4074;SDS011;2052;53.522;9.806;2023-04-03T11:35:16;1.60;;;1.30;;
4074;SDS011;2052;53.522;9.806;2023-04-03T11:37:44;4.20;;;1.70;;
4074;SDS011;2052;53.522;9.806;2023-04-03T11:40:19;2.10;;;1.37;;
4074;SDS011;2052;53.522;9.806;2023-04-03T11:42:48;2.90;;;1.17;;
4074;SDS011;2052;53.522;9.806;2023-04-03T11:45:22;2.60;;;1.80;;
4074;SDS011;2052;53.522;9.806;2023-04-03T11:47:53;3.53;;;1.97;;
4074;SDS011;2052;53.522;9.806;2023-04-03T11:50:31;1.17;;;1.07;;
4074;SDS011;2052;53.522;9.806;2023-04-03T11:56:01;2.30;;;1.70;;
4074;SDS011;2052;53.522;9.806;2023-04-03T11:58:30;5.77;;;1.60;;
4074;SDS011;2052;53.522;9.806;2023-04-03T12:01:00;1.97;;;1.77;;
4074;SDS011;2052;53.522;9.806;2023-04-03T12:06:47;1.60;;;1.50;;
4074;SDS011;2052;53.522;9.806;2023-04-03T12:12:26;5.03;;;1.90;;
4074;SDS011;2052;53.522;9.806;2023-04-03T12:14:55;2.67;;;1.50;;
4074;SDS011;2052;53.522;9.806;2023-04-03T12:17:26;1.70;;;1.30;;
4074;SDS011;2052;53.522;9.806;2023-04-03T12:19:54;3.83;;;1.70;;
4074;SDS011;2052;53.522;9.806;2023-04-03T12:22:20;2.20;;;1.70;;
4074;SDS011;2052;53.522;9.806;2023-04-03T12:24:48;1.37;;;1.20;;
4074;SDS011;2052;53.522;9.806;2023-04-03T12:30:05;7.00;;;1.70;;
4074;SDS011;2052;53.522;9.806;2023-04-03T12:32:48;5.00;;;1.80;;
4074;SDS011;2052;53.522;9.806;2023-04-03T12:35:23;3.97;;;1.80;;
4074;SDS011;2052;53.522;9.806;2023-04-03T12:37:59;6.37;;;1.43;;
4074;SDS011;2052;53.522;9.806;2023-04-03T12:40:41;1.47;;;1.30;;
4074;SDS011;2052;53.522;9.806;2023-04-03T12:43:13;2.90;;;1.63;;
4074;SDS011;2052;53.522;9.806;2023-04-03T12:45:47;3.63;;;1.37;;
4074;SDS011;2052;53.522;9.806;2023-04-03T12:48:20;1.50;;;1.23;;
4074;SDS011;2052;53.522;9.806;2023-04-03T12:50:49;2.00;;;1.43;;
4074;SDS011;2052;53.522;9.806;2023-04-03T12:53:16;2.53;;;1.57;;
4074;SDS011;2052;53.522;9.806;2023-04-03T12:55:45;4.90;;;1.80;;
4074;SDS011;2052;53.522;9.806;2023-04-03T12:58:15;3.97;;;1.60;;
4074;SDS011;2052;53.522;9.806;2023-04-03T13:00:43;4.30;;;2.17;;
4074;SDS011;2052;53.522;9.806;2023-04-03T13:03:21;3.50;;;1.93;;
4074;SDS011;2052;53.522;9.806;2023-04-03T13:05:49;5.53;;;2.33;;
4074;SDS011;2052;53.522;9.806;2023-04-03T13:08:15;4.27;;;1.90;;
4074;SDS011;2052;53.522;9.806;2023-04-03T13:10:47;3.47;;;1.80;;
4074;SDS011;2052;53.522;9.806;2023-04-03T13:13:18;3.03;;;2.10;;
4074;SDS011;2052;53.522;9.806;2023-04-03T13:15:45;2.77;;;1.50;;
4074;SDS011;2052;53.522;9.806;2023-04-03T13:18:28;3.60;;;2.03;;
4074;SDS011;2052;53.522;9.806;2023-04-03T13:20:57;3.03;;;1.90;;
4074;SDS011;2052;53.522;9.806;2023-04-03T13:23:27;2.00;;;1.43;;
4074;SDS011;2052;53.522;9.806;2023-04-03T13:25:54;6.70;;;2.00;;
4074;SDS011;2052;53.522;9.806;2023-04-03T13:28:23;3.77;;;1.67;;
4074;SDS011;2052;53.522;9.806;2023-04-03T13:31:01;4.47;;;1.70;;
4074;SDS011;2052;53.522;9.806;2023-04-03T13:33:32;2.10;;;1.40;;
4074;SDS011;2052;53.522;9.806;2023-04-03T13:36:06;4.70;;;1.83;;
4074;SDS011;2052;53.522;9.806;2023-04-03T13:38:34;1.63;;;1.27;;
4074;SDS011;2052;53.522;9.806;2023-04-03T13:41:02;1.60;;;1.33;;
4074;SDS011;2052;53.522;9.806;2023-04-03T13:43:31;2.80;;;1.47;;
4074;SDS011;2052;53.522;9.806;2023-04-03T13:45:59;2.03;;;1.50;;
4074;SDS011;2052;53.522;9.806;2023-04-03T13:48:39;4.40;;;1.70;;
4074;SDS011;2052;53.522;9.806;2023-04-03T13:51:16;2.70;;;1.47;;
4074;SDS011;2052;53.522;9.806;2023-04-03T13:53:47;3.70;;;1.80;;
4074;SDS011;2052;53.522;9.806;2023-04-03T13:56:27;3.43;;;1.80;;
4074;SDS011;2052;53.522;9.806;2023-04-03T13:59:02;4.23;;;1.17;;
4074;SDS011;2052;53.522;9.806;2023-04-03T14:01:40;2.17;;;1.63;;
4074;SDS011;2052;53.522;9.806;2023-04-03T14:04:15;2.27;;;1.50;;
4074;SDS011;2052;53.522;9.806;2023-04-03T14:06:45;2.33;;;1.97;;
4074;SDS011;2052;53.522;9.806;2023-04-03T14:09:12;3.07;;;2.40;;
4074;SDS011;2052;53.522;9.806;2023-04-03T14:11:40;3.37;;;1.77;;
4074;SDS011;2052;53.522;9.806;2023-04-03T14:14:12;3.10;;;2.03;;
4074;SDS011;2052;53.522;9.806;2023-04-03T14:16:41;3.20;;;1.37;;
4074;SDS011;2052;53.522;9.806;2023-04-03T14:19:22;3.13;;;1.40;;
4074;SDS011;2052;53.522;9.806;2023-04-03T14:21:50;2.07;;;1.63;;
4074;SDS011;2052;53.522;9.806;2023-04-03T14:24:19;2.60;;;1.33;;
4074;SDS011;2052;53.522;9.806;2023-04-03T14:26:46;2.10;;;1.57;;
4074;SDS011;2052;53.522;9.806;2023-04-03T14:29:13;3.60;;;1.77;;
4074;SDS011;2052;53.522;9.806;2023-04-03T14:31:41;1.63;;;1.53;;
4074;SDS011;2052;53.522;9.806;2023-04-03T14:34:09;2.00;;;1.73;;
4074;SDS011;2052;53.522;9.806;2023-04-03T14:36:37;2.90;;;1.50;;
4074;SDS011;2052;53.522;9.806;2023-04-03T14:39:06;4.77;;;1.67;;
4074;SDS011;2052;53.522;9.806;2023-04-03T14:41:34;2.37;;;1.40;;
4074;SDS011;2052;53.522;9.806;2023-04-03T14:44:01;2.70;;;1.70;;
4074;SDS011;2052;53.522;9.806;2023-04-03T14:46:29;1.57;;;1.43;;
4074;SDS011;2052;53.522;9.806;2023-04-03T14:48:57;3.50;;;1.73;;
4074;SDS011;2052;53.522;9.806;2023-04-03T14:51:24;1.73;;;1.60;;
4074;SDS011;2052;53.522;9.806;2023-04-03T14:53:55;3.13;;;1.90;;
4074;SDS011;2052;53.522;9.806;2023-04-03T14:56:23;3.23;;;2.00;;
4074;SDS011;2052;53.522;9.806;2023-04-03T14:58:51;5.57;;;1.60;;
4074;SDS011;2052;53.522;9.806;2023-04-03T15:01:20;2.50;;;1.43;;
4074;SDS011;2052;53.522;9.806;2023-04-03T15:03:47;1.40;;;1.10;;
4074;SDS011;2052;53.522;9.806;2023-04-03T15:06:14;4.17;;;1.23;;
4074;SDS011;2052;53.522;9.806;2023-04-03T15:08:41;12.53;;;1.83;;
4074;SDS011;2052;53.522;9.806;2023-04-03T15:11:10;1.57;;;1.37;;
4074;SDS011;2052;53.522;9.806;2023-04-03T15:13:42;2.07;;;1.60;;
4074;SDS011;2052;53.522;9.806;2023-04-03T15:16:12;1.77;;;1.20;;
4074;SDS011;2052;53.522;9.806;2023-04-03T15:18:41;2.20;;;1.73;;
4074;SDS011;2052;53.522;9.806;2023-04-03T15:21:08;3.30;;;1.57;;
4074;SDS011;2052;53.522;9.806;2023-04-03T15:23:34;1.70;;;1.60;;
4074;SDS011;2052;53.522;9.806;2023-04-03T15:26:01;1.80;;;1.50;;
4074;SDS011;2052;53.522;9.806;2023-04-03T15:28:30;2.17;;;1.70;;
4074;SDS011;2052;53.522;9.806;2023-04-03T15:30:57;6.83;;;2.00;;
4074;SDS011;2052;53.522;9.806;2023-04-03T15:33:24;3.90;;;1.43;;
4074;SDS011;2052;53.522;9.806;2023-04-03T15:35:52;3.83;;;1.53;;
4074;SDS011;2052;53.522;9.806;2023-04-03T15:38:18;5.10;;;1.60;;